createdAt,value
2023-04-15T00:00:15.351Z,96018.03
2023-04-15T00:02:49.785Z,96017.53
2023-04-15T00:05:22.315Z,96023.41
2023-04-15T00:07:53.829Z,96020.91
2023-04-15T00:10:26.162Z,96013.59
2023-04-15T00:12:57.834Z,96015.69
2023-04-15T00:15:29.497Z,96022.84
2023-04-15T00:18:01.246Z,96023.16
2023-04-15T00:20:32.915Z,96024.00
2023-04-15T00:23:04.629Z,96021.44
2023-04-15T00:25:36.374Z,96027.19
2023-04-15T00:28:08.067Z,96028.69
2023-04-15T00:30:39.801Z,96024.81
2023-04-15T00:33:11.523Z,96035.16
2023-04-15T00:35:43.222Z,96023.22
2023-04-15T00:38:14.830Z,96031.97
2023-04-15T00:40:46.786Z,96032.69
2023-04-15T00:43:18.502Z,96027.38
2023-04-15T00:45:53.175Z,96028.19
2023-04-15T00:48:26.291Z,96026.31
2023-04-15T00:50:58.146Z,96022.81
2023-04-15T00:53:29.824Z,96015.50
2023-04-15T00:56:01.496Z,96009.13
2023-04-15T00:58:33.294Z,96014.38
2023-04-15T01:01:05.134Z,96001.06
2023-04-15T01:03:37.707Z,96005.78
2023-04-15T01:06:09.742Z,96009.25
2023-04-15T01:08:41.361Z,96002.06
2023-04-15T01:11:14.426Z,96006.25
2023-04-15T01:13:47.227Z,96012.44
2023-04-15T01:16:20.053Z,96006.13
2023-04-15T01:18:52.577Z,96009.53
2023-04-15T01:21:24.230Z,96012.72
2023-04-15T01:23:56.289Z,96007.44
2023-04-15T01:26:28.289Z,96015.63
2023-04-15T01:29:00.283Z,96018.88
2023-04-15T01:31:32.601Z,96010.81
2023-04-15T01:34:04.516Z,96007.00
2023-04-15T01:36:36.150Z,96008.16
2023-04-15T01:39:08.327Z,96003.41
2023-04-15T01:41:40.006Z,96001.88
2023-04-15T01:44:11.784Z,96001.88
2023-04-15T01:46:44.967Z,95995.97
2023-04-15T01:49:16.532Z,95996.44
2023-04-15T01:51:48.403Z,95989.34
2023-04-15T01:54:20.220Z,95994.63
2023-04-15T01:56:51.918Z,95991.94
2023-04-15T01:59:23.771Z,95993.84
2023-04-15T02:01:55.731Z,95990.53
2023-04-15T02:04:27.542Z,95989.84
2023-04-15T02:06:59.315Z,95993.56
2023-04-15T02:09:31.139Z,95989.88
2023-04-15T02:12:02.971Z,95988.16
2023-04-15T02:14:34.838Z,95992.19
2023-04-15T02:17:06.880Z,95990.34
2023-04-15T02:19:38.832Z,95981.53
2023-04-15T02:22:10.779Z,95980.34
2023-04-15T02:24:42.504Z,95982.03
2023-04-15T02:27:16.548Z,95983.75
2023-04-15T02:29:48.778Z,95975.97
2023-04-15T02:32:20.930Z,95984.22
2023-04-15T02:34:52.674Z,95978.50
2023-04-15T02:37:24.697Z,95982.88
2023-04-15T02:39:56.339Z,95985.75
2023-04-15T02:42:27.994Z,95986.81
2023-04-15T02:44:59.824Z,95981.38
2023-04-15T02:47:36.039Z,95977.19
2023-04-15T02:50:12.418Z,95979.81
2023-04-15T02:52:45.943Z,95976.03
2023-04-15T02:55:17.663Z,95981.91
2023-04-15T02:57:49.270Z,95984.75
2023-04-15T03:00:20.937Z,95981.47
2023-04-15T03:06:08.731Z,95981.91
2023-04-15T03:08:40.408Z,95981.19
2023-04-15T03:11:12.088Z,95975.16
2023-04-15T03:13:43.798Z,95973.19
2023-04-15T03:16:26.685Z,95971.50
2023-04-15T03:18:58.381Z,95985.91
2023-04-15T03:21:30.301Z,95978.41
2023-04-15T03:24:01.974Z,95976.94
2023-04-15T03:26:34.240Z,95978.38
2023-04-15T03:29:10.934Z,95972.03
2023-04-15T03:31:44.320Z,95975.28
2023-04-15T03:34:16.498Z,95975.22
2023-04-15T03:36:48.139Z,95965.28
2023-04-15T03:39:19.741Z,95969.34
2023-04-15T03:41:51.348Z,95969.25
2023-04-15T03:44:22.983Z,95974.38
2023-04-15T03:46:54.761Z,95969.25
2023-04-15T03:49:26.413Z,95967.31
2023-04-15T03:51:58.139Z,95964.69
2023-04-15T03:54:29.882Z,95973.50
2023-04-15T03:57:01.552Z,95962.53
2023-04-15T03:59:33.128Z,95976.44
2023-04-15T04:02:04.807Z,95966.59
2023-04-15T04:04:36.544Z,95963.44
2023-04-15T04:07:08.286Z,95968.00
2023-04-15T04:09:39.876Z,95959.84
2023-04-15T04:12:11.736Z,95973.13
2023-04-15T04:14:43.668Z,95974.72
2023-04-15T04:17:15.531Z,95967.00
2023-04-15T04:19:47.361Z,95970.72
2023-04-15T04:22:23.385Z,95980.28
2023-04-15T04:24:55.166Z,95969.50
2023-04-15T04:27:26.902Z,95971.38
2023-04-15T04:29:58.563Z,95972.16
2023-04-15T04:32:30.456Z,95970.56
2023-04-15T04:35:02.424Z,95971.06
2023-04-15T04:37:34.232Z,95966.03
2023-04-15T04:40:06.841Z,95972.97
2023-04-15T04:42:40.205Z,95968.41
2023-04-15T04:45:12.183Z,95958.41
2023-04-15T04:47:44.009Z,95968.13
2023-04-15T04:50:19.167Z,95960.34
2023-04-15T04:52:50.927Z,95954.81
2023-04-15T04:55:22.956Z,95948.75
2023-04-15T04:57:54.710Z,95947.50
2023-04-15T05:00:26.817Z,95952.28
2023-04-15T05:03:00.991Z,95953.00
2023-04-15T05:05:33.025Z,95954.00
2023-04-15T05:08:05.763Z,95964.56
2023-04-15T05:10:37.804Z,95963.44
2023-04-15T05:13:09.906Z,95965.75
2023-04-15T05:15:41.656Z,95965.44
2023-04-15T05:18:13.348Z,95963.63
2023-04-15T05:20:45.092Z,95957.19
2023-04-15T05:23:16.979Z,95956.44
2023-04-15T05:25:48.793Z,95954.59
2023-04-15T05:28:20.467Z,95949.34
2023-04-15T05:30:52.233Z,95956.75
2023-04-15T05:33:24.038Z,95951.91
2023-04-15T05:35:55.642Z,95956.09
2023-04-15T05:38:27.359Z,95952.75
2023-04-15T05:40:59.241Z,95952.88
2023-04-15T05:43:31.397Z,95956.72
2023-04-15T05:46:03.122Z,95959.97
2023-04-15T05:48:34.866Z,95963.22
2023-04-15T05:51:06.592Z,95964.41
2023-04-15T05:53:38.183Z,95964.31
2023-04-15T05:56:09.839Z,95972.88
2023-04-15T05:58:41.456Z,95970.50
2023-04-15T06:01:13.151Z,95973.75
2023-04-15T06:03:44.928Z,95970.53
2023-04-15T06:06:16.701Z,95975.25
2023-04-15T06:08:48.460Z,95978.41
2023-04-15T06:11:23.316Z,95976.75
2023-04-15T06:13:54.991Z,95979.72
2023-04-15T06:16:26.881Z,95972.22
2023-04-15T06:18:58.679Z,95982.63
2023-04-15T06:21:30.906Z,95980.25
2023-04-15T06:24:02.743Z,95991.50
2023-04-15T06:30:13.280Z,95982.06
2023-04-15T06:32:45.390Z,95983.81
2023-04-15T06:35:17.195Z,95994.56
2023-04-15T06:37:48.877Z,95986.97
2023-04-15T06:40:20.475Z,95985.00
2023-04-15T06:42:52.244Z,95996.13
2023-04-15T06:45:24.316Z,95997.13
2023-04-15T06:47:56.118Z,95996.63
2023-04-15T06:50:27.961Z,95994.94
2023-04-15T06:52:59.819Z,96001.25
2023-04-15T06:55:31.660Z,96003.97
2023-04-15T06:58:03.632Z,95987.31
2023-04-15T07:00:35.619Z,95996.13
2023-04-15T07:03:07.392Z,95983.78
2023-04-15T07:05:39.629Z,95998.28
2023-04-15T07:08:11.521Z,95991.28
2023-04-15T07:10:43.209Z,95997.09
2023-04-15T07:13:15.138Z,95991.06
2023-04-15T07:15:47.049Z,95997.03
2023-04-15T07:18:18.924Z,95995.81
2023-04-15T07:20:50.708Z,95994.13
2023-04-15T07:23:22.765Z,95996.41
2023-04-15T07:25:54.441Z,96002.63
2023-04-15T07:28:29.322Z,95998.00
2023-04-15T07:31:01.133Z,95990.88
2023-04-15T07:33:33.090Z,96003.81
2023-04-15T07:36:05.046Z,96000.81
2023-04-15T07:38:37.155Z,96001.44
2023-04-15T07:41:08.968Z,95990.09
2023-04-15T07:43:41.026Z,95997.00
2023-04-15T07:46:12.777Z,95993.84
2023-04-15T07:48:45.150Z,95999.38
2023-04-15T07:51:17.067Z,96004.56
2023-04-15T07:53:49.738Z,96004.88
2023-04-15T07:56:21.410Z,95997.69
2023-04-15T07:58:53.337Z,95999.88
2023-04-15T08:01:25.114Z,95997.81
2023-04-15T08:03:57.592Z,96001.53
2023-04-15T08:06:29.394Z,95994.91
2023-04-15T08:09:01.245Z,96001.81
2023-04-15T08:11:34.043Z,96000.41
2023-04-15T08:14:05.812Z,96001.44
2023-04-15T08:16:38.390Z,96007.41
2023-04-15T08:19:10.288Z,96006.19
2023-04-15T08:21:42.097Z,96011.22
2023-04-15T08:24:14.114Z,96013.13
2023-04-15T08:26:45.917Z,96015.50
2023-04-15T08:29:17.600Z,96020.56
2023-04-15T08:31:49.371Z,96028.38
2023-04-15T08:34:21.150Z,96025.94
2023-04-15T08:36:59.521Z,96035.53
2023-04-15T08:39:31.368Z,96024.69
2023-04-15T08:42:05.935Z,96033.91
2023-04-15T08:44:37.762Z,96034.22
2023-04-15T08:47:09.625Z,96043.94
2023-04-15T08:49:43.246Z,96037.09
2023-04-15T08:52:15.112Z,96045.09
2023-04-15T08:54:48.065Z,96043.81
2023-04-15T08:57:20.080Z,96056.19
2023-04-15T08:59:52.900Z,96053.22
2023-04-15T09:02:26.775Z,96055.19
2023-04-15T09:04:58.980Z,96052.81
2023-04-15T09:07:30.660Z,96056.16
2023-04-15T09:10:04.240Z,96061.47
2023-04-15T09:12:37.517Z,96067.03
2023-04-15T09:15:11.897Z,96054.34
2023-04-15T09:17:44.575Z,96069.91
2023-04-15T09:20:17.263Z,96064.72
2023-04-15T09:22:50.819Z,96065.91
2023-04-15T09:25:22.851Z,96072.44
2023-04-15T09:27:59.593Z,96079.31
2023-04-15T09:30:33.699Z,96078.50
2023-04-15T09:33:05.704Z,96084.16
2023-04-15T09:35:43.553Z,96087.50
2023-04-15T09:38:15.503Z,96094.53
2023-04-15T09:40:50.064Z,96092.53
2023-04-15T09:43:22.103Z,96108.81
2023-04-15T09:45:54.346Z,96108.03
2023-04-15T09:48:26.249Z,96113.72
2023-04-15T09:51:01.934Z,96109.47
2023-04-15T09:53:36.217Z,96109.00
2023-04-15T09:56:09.429Z,96117.41
2023-04-15T09:58:41.235Z,96111.81
2023-04-15T10:01:13.800Z,96122.38
2023-04-15T10:03:47.267Z,96131.00
2023-04-15T10:06:19.731Z,96133.03
2023-04-15T10:08:51.579Z,96136.50
2023-04-15T10:11:25.030Z,96141.03
2023-04-15T10:13:57.495Z,96139.28
2023-04-15T10:16:32.868Z,96137.41
2023-04-15T10:19:09.628Z,96135.53
2023-04-15T10:21:41.799Z,96151.50
2023-04-15T10:24:15.576Z,96153.88
2023-04-15T10:26:48.007Z,96156.03
2023-04-15T10:29:20.851Z,96152.41
2023-04-15T10:31:55.470Z,96155.66
2023-04-15T10:34:29.489Z,96157.91
2023-04-15T10:37:04.694Z,96158.41
2023-04-15T10:39:36.293Z,96162.47
2023-04-15T10:42:10.919Z,96154.34
2023-04-15T10:44:45.662Z,96158.59
2023-04-15T10:47:20.013Z,96165.38
2023-04-15T10:49:57.492Z,96173.19
2023-04-15T10:52:29.976Z,96170.19
2023-04-15T10:55:02.888Z,96178.50
2023-04-15T10:57:38.506Z,96177.81
2023-04-15T11:00:16.043Z,96180.19
2023-04-15T11:02:58.372Z,96195.97
2023-04-15T11:05:42.016Z,96197.09
2023-04-15T11:08:13.835Z,96193.19
2023-04-15T11:10:45.470Z,96199.47
2023-04-15T11:13:21.365Z,96197.56
2023-04-15T11:15:56.900Z,96204.91
2023-04-15T11:18:34.146Z,96203.94
2023-04-15T11:21:08.123Z,96208.84
2023-04-15T11:23:43.876Z,96208.38
2023-04-15T11:26:15.587Z,96210.16
2023-04-15T11:28:47.451Z,96205.75
2023-04-15T11:31:19.308Z,96218.31
2023-04-15T11:33:58.803Z,96214.16
2023-04-15T11:36:32.943Z,96223.19
2023-04-15T11:39:07.362Z,96224.97
2023-04-15T11:41:41.868Z,96219.53
2023-04-15T11:44:18.503Z,96220.66
2023-04-15T11:46:50.180Z,96235.28
2023-04-15T11:49:31.456Z,96233.53
2023-04-15T11:52:10.945Z,96237.75
2023-04-15T11:54:42.765Z,96243.41
2023-04-15T11:57:14.560Z,96241.28
2023-04-15T11:59:46.417Z,96242.84
2023-04-15T12:02:18.505Z,96255.78
2023-04-15T12:04:50.408Z,96255.16
2023-04-15T12:07:22.099Z,96258.63
2023-04-15T12:09:57.916Z,96258.63
2023-04-15T12:12:29.902Z,96260.84
2023-04-15T12:15:01.785Z,96258.31
2023-04-15T12:17:51.851Z,96272.16
2023-04-15T12:20:26.946Z,96282.78
2023-04-15T12:23:07.869Z,96276.53
2023-04-15T12:25:39.640Z,96284.69
2023-04-15T12:28:11.742Z,96284.22
2023-04-15T12:30:52.295Z,96288.34
2023-04-15T12:33:24.155Z,96299.97
2023-04-15T12:35:55.977Z,96300.38
2023-04-15T12:38:27.860Z,96301.09
2023-04-15T12:40:59.651Z,96307.44
2023-04-15T12:43:31.449Z,96305.81
2023-04-15T12:46:03.393Z,96307.50
2023-04-15T12:48:35.275Z,96310.13
2023-04-15T12:51:07.558Z,96311.34
2023-04-15T12:53:39.857Z,96315.28
2023-04-15T12:56:11.836Z,96317.84
2023-04-15T12:58:43.636Z,96321.84
2023-04-15T13:01:15.395Z,96316.63
2023-04-15T13:03:47.382Z,96328.06
2023-04-15T13:06:19.092Z,96336.63
2023-04-15T13:08:58.433Z,96328.53
2023-04-15T13:11:31.290Z,96335.19
2023-04-15T13:14:05.663Z,96344.13
2023-04-15T13:16:37.532Z,96338.47
2023-04-15T13:19:09.353Z,96339.72
2023-04-15T13:21:41.139Z,96345.97
2023-04-15T13:24:12.782Z,96346.56
2023-04-15T13:26:44.453Z,96360.63
2023-04-15T13:29:16.058Z,96354.22
2023-04-15T13:31:47.748Z,96363.31
2023-04-15T13:34:19.840Z,96359.25
2023-04-15T13:37:13.885Z,96362.13
2023-04-15T13:39:45.807Z,96361.25
2023-04-15T13:42:17.429Z,96363.63
2023-04-15T13:44:50.479Z,96365.09
2023-04-15T13:47:22.201Z,96369.75
2023-04-15T13:49:53.923Z,96372.47
2023-04-15T13:52:25.494Z,96379.19
2023-04-15T13:55:08.369Z,96378.25
2023-04-15T13:57:52.835Z,96391.63
2023-04-15T14:00:24.717Z,96397.44
2023-04-15T14:02:56.453Z,96395.94
2023-04-15T14:05:28.463Z,96396.06
2023-04-15T14:08:00.316Z,96401.75
2023-04-15T14:10:32.068Z,96400.06
2023-04-15T14:13:05.875Z,96392.66
2023-04-15T14:15:38.037Z,96395.84
2023-04-15T14:18:09.809Z,96414.41
2023-04-15T14:20:41.562Z,96398.47
2023-04-15T14:23:13.337Z,96405.81
2023-04-15T14:25:47.929Z,96402.06
2023-04-15T14:28:20.218Z,96406.25
2023-04-15T14:30:51.988Z,96419.53
2023-04-15T14:33:23.724Z,96419.34
2023-04-15T14:35:56.002Z,96418.75
2023-04-15T14:38:28.040Z,96421.78
2023-04-15T14:40:59.778Z,96429.47
2023-04-15T14:43:32.137Z,96430.03
2023-04-15T14:46:04.379Z,96433.63
2023-04-15T14:48:36.299Z,96443.59
2023-04-15T14:51:09.114Z,96452.00
2023-04-15T14:53:40.755Z,96448.75
2023-04-15T14:56:12.648Z,96451.16
2023-04-15T14:58:44.426Z,96455.03
2023-04-15T15:01:16.421Z,96461.88
2023-04-15T15:03:49.691Z,96457.41
2023-04-15T15:06:21.980Z,96460.78
2023-04-15T15:08:53.721Z,96465.53
2023-04-15T15:11:25.497Z,96465.78
2023-04-15T15:13:57.408Z,96471.81
2023-04-15T15:16:29.255Z,96476.16
2023-04-15T15:19:01.379Z,96477.69
2023-04-15T15:21:33.555Z,96482.16
2023-04-15T15:24:05.762Z,96483.38
2023-04-15T15:26:37.813Z,96499.00
2023-04-15T15:29:09.754Z,96504.94
2023-04-15T15:31:41.841Z,96511.97
2023-04-15T15:34:13.612Z,96510.19
2023-04-15T15:36:45.470Z,96510.19
2023-04-15T15:39:17.205Z,96513.63
2023-04-15T15:41:48.980Z,96526.50
2023-04-15T15:44:20.646Z,96525.50
2023-04-15T15:46:52.401Z,96529.75
2023-04-15T15:49:24.092Z,96531.81
2023-04-15T15:51:56.280Z,96532.59
2023-04-15T15:54:29.006Z,96535.75
2023-04-15T15:57:00.715Z,96545.16
2023-04-15T15:59:32.529Z,96549.78
2023-04-15T16:02:04.606Z,96551.88
2023-04-15T16:04:38.251Z,96549.78
2023-04-15T16:07:11.164Z,96557.53
2023-04-15T16:09:42.880Z,96563.56
2023-04-15T16:12:14.621Z,96564.75
2023-04-15T16:14:46.635Z,96563.75
2023-04-15T16:17:18.256Z,96567.91
2023-04-15T16:19:57.398Z,96569.47
2023-04-15T16:22:34.848Z,96575.03
2023-04-15T16:25:07.080Z,96578.72
2023-04-15T16:35:52.628Z,96601.03
2023-04-15T16:38:24.256Z,96605.50
2023-04-15T16:40:59.994Z,96612.41
2023-04-15T16:43:31.945Z,96608.97
2023-04-15T16:46:04.757Z,96611.94
2023-04-15T16:48:36.407Z,96625.09
2023-04-15T16:51:08.122Z,96627.69
2023-04-15T16:53:39.963Z,96634.75
2023-04-15T16:56:11.723Z,96645.63
2023-04-15T16:58:44.412Z,96653.72
2023-04-15T17:01:36.911Z,96655.16
2023-04-15T17:04:08.765Z,96659.44
2023-04-15T17:06:40.567Z,96667.44
2023-04-15T17:09:12.336Z,96675.06
2023-04-15T17:11:44.551Z,96680.22
2023-04-15T17:14:16.898Z,96676.94
2023-04-15T17:16:48.631Z,96674.75
2023-04-15T17:19:20.514Z,96677.47
2023-04-15T17:21:54.700Z,96680.81
2023-04-15T17:24:27.011Z,96683.38
2023-04-15T17:26:58.862Z,96685.34
2023-04-15T17:29:30.681Z,96693.66
2023-04-15T17:32:02.630Z,96690.03
2023-04-15T17:34:50.044Z,96698.78
2023-04-15T17:37:22.616Z,96693.88
2023-04-15T17:39:54.501Z,96691.78
2023-04-15T17:42:26.504Z,96700.59
2023-04-15T17:44:58.312Z,96715.81
2023-04-15T17:47:30.129Z,96725.06
2023-04-15T17:50:01.917Z,96742.94
2023-04-15T17:52:33.901Z,96735.38
2023-04-15T17:55:07.366Z,96748.03
2023-04-15T17:57:39.280Z,96749.09
2023-04-15T18:00:11.778Z,96751.09
2023-04-15T18:02:46.866Z,96751.69
2023-04-15T18:05:19.058Z,96760.28
2023-04-15T18:07:52.115Z,96758.69
2023-04-15T18:10:24.058Z,96760.41
2023-04-15T18:12:55.929Z,96776.44
2023-04-15T18:15:27.821Z,96775.31
2023-04-15T18:17:59.847Z,96775.19
2023-04-15T18:20:31.866Z,96784.84
2023-04-15T18:23:03.641Z,96787.28
2023-04-15T18:25:36.033Z,96788.91
2023-04-15T18:28:07.819Z,96797.31
2023-04-15T18:30:39.488Z,96804.53
2023-04-15T18:33:11.154Z,96808.59
2023-04-15T18:35:42.913Z,96814.06
2023-04-15T18:38:14.625Z,96816.59
2023-04-15T18:40:46.275Z,96818.56
2023-04-15T18:43:17.848Z,96818.84
2023-04-15T18:45:51.557Z,96816.25
2023-04-15T18:48:23.172Z,96826.28
2023-04-15T18:50:54.918Z,96830.13
2023-04-15T18:53:26.520Z,96846.25
2023-04-15T18:55:58.253Z,96845.50
2023-04-15T18:58:29.930Z,96856.22
2023-04-15T19:01:21.562Z,96865.44
2023-04-15T19:03:53.312Z,96881.41
2023-04-15T19:06:25.138Z,96874.66
2023-04-15T19:08:57.240Z,96882.75
2023-04-15T19:11:28.977Z,96883.94
2023-04-15T19:14:01.045Z,96882.84
2023-04-15T19:16:32.836Z,96885.59
2023-04-15T19:19:04.842Z,96883.91
2023-04-15T19:21:36.890Z,96891.91
2023-04-15T19:24:09.720Z,96891.22
2023-04-15T19:26:41.448Z,96900.44
2023-04-15T19:29:13.178Z,96905.66
2023-04-15T19:31:45.191Z,96913.00
2023-04-15T19:34:17.136Z,96915.56
2023-04-15T19:36:48.756Z,96906.44
2023-04-15T19:39:20.417Z,96903.53
2023-04-15T19:41:54.086Z,96913.47
2023-04-15T19:44:27.571Z,96904.78
2023-04-15T19:46:59.836Z,96910.59
2023-04-15T19:49:32.024Z,96912.28
2023-04-15T19:52:04.663Z,96926.56
2023-04-15T19:54:36.607Z,96927.56
2023-04-15T19:57:08.386Z,96931.72
2023-04-15T19:59:40.347Z,96942.19
2023-04-15T20:02:12.256Z,96942.28
2023-04-15T20:04:44.152Z,96944.09
2023-04-15T20:07:16.005Z,96941.25
2023-04-15T20:09:47.840Z,96940.19
2023-04-15T20:12:49.808Z,96941.88
2023-04-15T20:15:13.135Z,96940.16
2023-04-15T20:17:45.152Z,96945.97
2023-04-15T20:20:16.796Z,96942.31
2023-04-15T20:22:48.727Z,96943.47
2023-04-15T20:25:20.567Z,96934.78
2023-04-15T20:27:52.948Z,96947.41
2023-04-15T20:30:25.217Z,96942.78
2023-04-15T20:32:57.088Z,96939.81
2023-04-15T20:35:28.954Z,96929.19
2023-04-15T20:38:01.492Z,96935.56
2023-04-15T20:40:33.319Z,96941.84
2023-04-15T20:43:05.058Z,96942.41
2023-04-15T20:45:37.253Z,96946.38
2023-04-15T20:48:09.221Z,96960.97
2023-04-15T20:50:40.907Z,96950.78
2023-04-15T20:53:12.641Z,96956.94
2023-04-15T20:55:44.302Z,96966.03
2023-04-15T20:58:15.929Z,96967.66
2023-04-15T21:00:49.324Z,96960.00
2023-04-15T21:03:21.143Z,96971.31
2023-04-15T21:05:52.824Z,96972.75
2023-04-15T21:08:24.382Z,96977.19
2023-04-15T21:10:56.818Z,96980.50
2023-04-15T21:13:28.432Z,96984.59
2023-04-15T21:16:00.011Z,96980.56
2023-04-15T21:18:31.692Z,96981.81
2023-04-15T21:21:03.566Z,96990.50
2023-04-15T21:23:35.270Z,96997.25
2023-04-15T21:26:06.896Z,96998.50
2023-04-15T21:28:38.444Z,96996.53
2023-04-15T21:31:10.186Z,96993.28
2023-04-15T21:33:41.978Z,96993.75
2023-04-15T21:36:13.570Z,96985.56
2023-04-15T21:38:45.149Z,96979.38
2023-04-15T21:41:16.815Z,96985.13
2023-04-15T21:43:48.721Z,96984.84
2023-04-15T21:46:22.129Z,96983.91
2023-04-15T21:48:56.442Z,96983.84
2023-04-15T21:51:28.226Z,96992.91
2023-04-15T21:53:59.970Z,96995.88
2023-04-15T21:56:32.404Z,96999.88
2023-04-15T21:59:04.197Z,96998.00
2023-04-15T22:01:36.077Z,96996.34
2023-04-15T22:04:08.161Z,97002.72
2023-04-15T22:06:39.987Z,97012.13
2023-04-15T22:09:13.974Z,97002.19
2023-04-15T22:11:46.321Z,97012.59
2023-04-15T22:14:18.474Z,97009.28
2023-04-15T22:16:50.168Z,97006.72
2023-04-15T22:19:21.881Z,97019.31
2023-04-15T22:21:53.732Z,97011.75
2023-04-15T22:24:34.550Z,97020.84
2023-04-15T22:27:12.368Z,97025.63
2023-04-15T22:29:44.166Z,97025.75
2023-04-15T22:32:16.158Z,97016.47
2023-04-15T22:34:47.806Z,97031.44
2023-04-15T22:37:19.503Z,97039.44
2023-04-15T22:39:51.420Z,97033.75
2023-04-15T22:42:23.420Z,97032.31
2023-04-15T22:44:55.038Z,97041.38
2023-04-15T22:47:26.887Z,97043.59
2023-04-15T22:49:58.918Z,97037.97
2023-04-15T22:52:31.422Z,97041.66
2023-04-15T22:55:04.286Z,97041.66
2023-04-15T22:57:35.924Z,97043.38
2023-04-15T23:00:09.768Z,97049.78
2023-04-15T23:02:41.565Z,97050.50
2023-04-15T23:05:13.624Z,97046.31
2023-04-15T23:07:45.476Z,97047.69
2023-04-15T23:10:17.330Z,97048.22
2023-04-15T23:12:49.662Z,97055.13
2023-04-15T23:15:21.627Z,97061.69
2023-04-15T23:17:53.507Z,97059.56
2023-04-15T23:20:25.833Z,97057.47
2023-04-15T23:22:57.499Z,97061.06
2023-04-15T23:25:29.325Z,97065.38
2023-04-15T23:28:01.033Z,97063.63
2023-04-15T23:30:32.907Z,97072.25
2023-04-15T23:33:04.694Z,97072.81
2023-04-15T23:35:36.242Z,97067.56
2023-04-15T23:38:07.812Z,97075.38
2023-04-15T23:40:39.659Z,97079.19
2023-04-15T23:43:11.261Z,97085.84
2023-04-15T23:45:42.813Z,97085.56
2023-04-15T23:48:14.408Z,97087.75
2023-04-15T23:50:46.032Z,97095.13
2023-04-15T23:53:17.873Z,97087.19
2023-04-15T23:55:49.454Z,97087.94
2023-04-15T23:58:20.970Z,97084.84
